sensor_id;sensor_type;location;lat;lon;timestamp;pressure;altitude;pressure_sealevel;temperature;humidity
55032;BME280;40928;51.076;7.950;2023-04-26T00:01:16;97161.88;;;0.86;100.00
55032;BME280;40928;51.076;7.950;2023-04-26T00:03:42;97156.09;;;0.90;100.00
55032;BME280;40928;51.076;7.950;2023-04-26T00:06:07;97155.41;;;0.97;100.00
55032;BME280;40928;51.076;7.950;2023-04-26T00:08:35;97156.38;;;0.96;100.00
55032;BME280;40928;51.076;7.950;2023-04-26T00:11:00;97160.81;;;0.95;100.00
55032;BME280;40928;51.076;7.950;2023-04-26T00:13:26;97163.44;;;0.95;100.00
55032;BME280;40928;51.076;7.950;2023-04-26T00:15:52;97162.19;;;0.91;100.00
55032;BME280;40928;51.076;7.950;2023-04-26T00:18:17;97164.31;;;0.87;100.00
55032;BME280;40928;51.076;7.950;2023-04-26T00:20:43;97175.19;;;0.84;100.00
55032;BME280;40928;51.076;7.950;2023-04-26T00:23:08;97163.06;;;0.75;100.00
55032;BME280;40928;51.076;7.950;2023-04-26T00:25:35;97164.56;;;0.78;100.00
55032;BME280;40928;51.076;7.950;2023-04-26T00:28:01;97164.06;;;0.74;100.00
55032;BME280;40928;51.076;7.950;2023-04-26T00:30:28;97164.25;;;0.72;100.00
55032;BME280;40928;51.076;7.950;2023-04-26T00:32:53;97164.25;;;0.72;100.00
55032;BME280;40928;51.076;7.950;2023-04-26T00:35:19;97159.16;;;0.71;100.00
55032;BME280;40928;51.076;7.950;2023-04-26T00:37:45;97155.59;;;0.64;100.00
55032;BME280;40928;51.076;7.950;2023-04-26T00:40:11;97157.91;;;0.58;100.00
55032;BME280;40928;51.076;7.950;2023-04-26T00:42:38;97164.00;;;0.59;100.00
55032;BME280;40928;51.076;7.950;2023-04-26T00:45:05;97154.81;;;0.55;100.00
55032;BME280;40928;51.076;7.950;2023-04-26T00:47:31;97158.44;;;0.54;100.00
55032;BME280;40928;51.076;7.950;2023-04-26T00:49:58;97154.34;;;0.51;100.00
55032;BME280;40928;51.076;7.950;2023-04-26T00:52:25;97161.88;;;0.54;100.00
55032;BME280;40928;51.076;7.950;2023-04-26T00:54:52;97158.44;;;0.54;100.00
55032;BME280;40928;51.076;7.950;2023-04-26T00:57:18;97150.88;;;0.51;100.00
55032;BME280;40928;51.076;7.950;2023-04-26T00:59:44;97147.44;;;0.50;100.00
55032;BME280;40928;51.076;7.950;2023-04-26T01:02:09;97146.78;;;0.48;100.00
55032;BME280;40928;51.076;7.950;2023-04-26T01:04:35;97150.75;;;0.44;100.00
55032;BME280;40928;51.076;7.950;2023-04-26T01:07:01;97151.91;;;0.41;100.00
55032;BME280;40928;51.076;7.950;2023-04-26T01:09:31;97135.56;;;0.31;100.00
55032;BME280;40928;51.076;7.950;2023-04-26T01:11:59;97141.28;;;0.26;100.00
55032;BME280;40928;51.076;7.950;2023-04-26T01:14:26;97140.50;;;0.26;100.00
55032;BME280;40928;51.076;7.950;2023-04-26T01:16:52;97143.63;;;0.21;100.00
55032;BME280;40928;51.076;7.950;2023-04-26T01:19:17;97148.69;;;0.23;100.00
55032;BME280;40928;51.076;7.950;2023-04-26T01:21:44;97146.91;;;0.23;100.00
55032;BME280;40928;51.076;7.950;2023-04-26T01:24:16;97143.44;;;0.23;100.00
55032;BME280;40928;51.076;7.950;2023-04-26T01:26:43;97153.31;;;0.21;100.00
55032;BME280;40928;51.076;7.950;2023-04-26T01:29:17;97140.34;;;0.19;100.00
55032;BME280;40928;51.076;7.950;2023-04-26T01:31:43;97148.75;;;0.14;100.00
55032;BME280;40928;51.076;7.950;2023-04-26T01:34:09;97144.47;;;0.13;100.00
55032;BME280;40928;51.076;7.950;2023-04-26T01:36:35;97140.88;;;0.06;100.00
55032;BME280;40928;51.076;7.950;2023-04-26T01:39:00;97148.75;;;0.06;100.00
55032;BME280;40928;51.076;7.950;2023-04-26T01:41:26;97147.59;;;0.09;100.00
55032;BME280;40928;51.076;7.950;2023-04-26T01:43:51;97150.88;;;0.11;100.00
55032;BME280;40928;51.076;7.950;2023-04-26T01:46:17;97137.59;;;0.12;100.00
55032;BME280;40928;51.076;7.950;2023-04-26T01:48:43;97148.09;;;0.12;100.00
55032;BME280;40928;51.076;7.950;2023-04-26T01:51:09;97146.78;;;0.08;100.00
55032;BME280;40928;51.076;7.950;2023-04-26T01:53:35;97147.28;;;0.04;100.00
55032;BME280;40928;51.076;7.950;2023-04-26T01:56:01;97143.69;;;-0.04;100.00
55032;BME280;40928;51.076;7.950;2023-04-26T01:58:28;97146.81;;;-0.08;100.00
55032;BME280;40928;51.076;7.950;2023-04-26T02:00:53;97152.59;;;-0.13;100.00
55032;BME280;40928;51.076;7.950;2023-04-26T02:03:19;97145.84;;;-0.16;100.00
55032;BME280;40928;51.076;7.950;2023-04-26T02:05:45;97146.19;;;-0.19;100.00
55032;BME280;40928;51.076;7.950;2023-04-26T02:08:11;97148.97;;;-0.20;100.00
55032;BME280;40928;51.076;7.950;2023-04-26T02:10:36;97152.75;;;-0.23;100.00
55032;BME280;40928;51.076;7.950;2023-04-26T02:13:02;97149.31;;;-0.23;100.00
55032;BME280;40928;51.076;7.950;2023-04-26T02:15:27;97150.47;;;-0.26;100.00
55032;BME280;40928;51.076;7.950;2023-04-26T02:17:54;97147.19;;;-0.28;100.00
55032;BME280;40928;51.076;7.950;2023-04-26T02:20:20;97141.94;;;-0.28;100.00
55032;BME280;40928;51.076;7.950;2023-04-26T02:22:45;97147.03;;;-0.35;100.00
55032;BME280;40928;51.076;7.950;2023-04-26T02:25:13;97148.53;;;-0.40;100.00
55032;BME280;40928;51.076;7.950;2023-04-26T02:27:40;97148.19;;;-0.46;100.00
55032;BME280;40928;51.076;7.950;2023-04-26T02:30:06;97157.69;;;-0.44;100.00
55032;BME280;40928;51.076;7.950;2023-04-26T02:32:33;97151.66;;;-0.45;100.00
55032;BME280;40928;51.076;7.950;2023-04-26T02:34:58;97158.53;;;-0.44;100.00
55032;BME280;40928;51.076;7.950;2023-04-26T02:37:24;97148.84;;;-0.43;100.00
55032;BME280;40928;51.076;7.950;2023-04-26T02:39:50;97160.00;;;-0.50;100.00
55032;BME280;40928;51.076;7.950;2023-04-26T02:42:16;97149.84;;;-0.53;100.00
55032;BME280;40928;51.076;7.950;2023-04-26T02:44:42;97152.78;;;-0.56;100.00
55032;BME280;40928;51.076;7.950;2023-04-26T02:47:08;97143.47;;;-0.58;100.00
55032;BME280;40928;51.076;7.950;2023-04-26T02:49:34;97149.50;;;-0.58;100.00
55032;BME280;40928;51.076;7.950;2023-04-26T02:51:59;97145.56;;;-0.62;100.00
55032;BME280;40928;51.076;7.950;2023-04-26T02:54:25;97145.09;;;-0.66;100.00
55032;BME280;40928;51.076;7.950;2023-04-26T02:56:51;97152.47;;;-0.69;100.00
55032;BME280;40928;51.076;7.950;2023-04-26T02:59:16;97145.25;;;-0.67;100.00
55032;BME280;40928;51.076;7.950;2023-04-26T03:01:42;97144.59;;;-0.69;100.00
55032;BME280;40928;51.076;7.950;2023-04-26T03:04:08;97145.41;;;-0.69;100.00
55032;BME280;40928;51.076;7.950;2023-04-26T03:06:35;97137.72;;;-0.79;100.00
55032;BME280;40928;51.076;7.950;2023-04-26T03:09:00;97144.75;;;-0.79;100.00
55032;BME280;40928;51.076;7.950;2023-04-26T03:11:26;97142.97;;;-0.87;100.00
55032;BME280;40928;51.076;7.950;2023-04-26T03:13:52;97138.22;;;-0.92;100.00
55032;BME280;40928;51.076;7.950;2023-04-26T03:16:22;97141.50;;;-0.89;100.00
55032;BME280;40928;51.076;7.950;2023-04-26T03:18:48;97131.81;;;-0.89;100.00
55032;BME280;40928;51.076;7.950;2023-04-26T03:21:14;97133.13;;;-0.93;100.00
55032;BME280;40928;51.076;7.950;2023-04-26T03:23:40;97134.28;;;-0.96;100.00
55032;BME280;40928;51.076;7.950;2023-04-26T03:26:06;97128.88;;;-0.94;100.00
55032;BME280;40928;51.076;7.950;2023-04-26T03:28:32;97129.88;;;-0.95;100.00
55032;BME280;40928;51.076;7.950;2023-04-26T03:30:58;97129.88;;;-0.95;100.00
55032;BME280;40928;51.076;7.950;2023-04-26T03:33:23;97125.75;;;-0.98;100.00
55032;BME280;40928;51.076;7.950;2023-04-26T03:35:49;97124.09;;;-0.99;100.00
55032;BME280;40928;51.076;7.950;2023-04-26T03:38:16;97130.00;;;-0.97;100.00
55032;BME280;40928;51.076;7.950;2023-04-26T03:40:42;97130.97;;;-0.98;100.00
55032;BME280;40928;51.076;7.950;2023-04-26T03:43:07;97120.34;;;-0.96;100.00
55032;BME280;40928;51.076;7.950;2023-04-26T03:45:33;97129.03;;;-0.96;100.00
55032;BME280;40928;51.076;7.950;2023-04-26T03:47:59;97131.81;;;-0.97;100.00
55032;BME280;40928;51.076;7.950;2023-04-26T03:50:24;97129.34;;;-0.99;100.00
55032;BME280;40928;51.076;7.950;2023-04-26T03:52:50;97136.06;;;-1.04;100.00
55032;BME280;40928;51.076;7.950;2023-04-26T03:55:16;97131.94;;;-1.15;100.00
55032;BME280;40928;51.076;7.950;2023-04-26T03:57:42;97136.56;;;-1.17;100.00
55032;BME280;40928;51.076;7.950;2023-04-26T04:00:08;97132.44;;;-1.20;100.00
55032;BME280;40928;51.076;7.950;2023-04-26T04:02:41;97137.19;;;-1.15;100.00
55032;BME280;40928;51.076;7.950;2023-04-26T04:05:07;97129.50;;;-1.17;100.00
55032;BME280;40928;51.076;7.950;2023-04-26T04:07:34;97131.31;;;-1.17;100.00
55032;BME280;40928;51.076;7.950;2023-04-26T04:10:00;97127.38;;;-1.21;100.00
55032;BME280;40928;51.076;7.950;2023-04-26T04:12:26;97131.78;;;-1.22;100.00
55032;BME280;40928;51.076;7.950;2023-04-26T04:14:53;97128.03;;;-1.19;100.00
55032;BME280;40928;51.076;7.950;2023-04-26T04:17:19;97126.06;;;-1.17;100.00
55032;BME280;40928;51.076;7.950;2023-04-26T04:19:45;97126.22;;;-1.19;100.00
55032;BME280;40928;51.076;7.950;2023-04-26T04:22:10;97137.00;;;-1.22;100.00
55032;BME280;40928;51.076;7.950;2023-04-26T04:24:36;97137.00;;;-1.22;100.00
55032;BME280;40928;51.076;7.950;2023-04-26T04:27:03;97139.00;;;-1.16;100.00
55032;BME280;40928;51.076;7.950;2023-04-26T04:29:29;97132.47;;;-1.12;100.00
55032;BME280;40928;51.076;7.950;2023-04-26T04:31:54;97129.31;;;-1.15;100.00
55032;BME280;40928;51.076;7.950;2023-04-26T04:34:21;97134.06;;;-1.19;100.00
55032;BME280;40928;51.076;7.950;2023-04-26T04:36:48;97134.41;;;-1.22;100.00
55032;BME280;40928;51.076;7.950;2023-04-26T04:39:15;97143.09;;;-1.21;100.00
55032;BME280;40928;51.076;7.950;2023-04-26T04:41:42;97141.59;;;-1.24;100.00
55032;BME280;40928;51.076;7.950;2023-04-26T04:44:16;97143.91;;;-1.29;100.00
55032;BME280;40928;51.076;7.950;2023-04-26T04:46:43;97142.75;;;-1.27;100.00
55032;BME280;40928;51.076;7.950;2023-04-26T04:49:10;97145.84;;;-1.23;100.00
55032;BME280;40928;51.076;7.950;2023-04-26T04:51:37;97157.50;;;-1.17;100.00
55032;BME280;40928;51.076;7.950;2023-04-26T04:54:16;97151.13;;;-1.15;100.00
55032;BME280;40928;51.076;7.950;2023-04-26T04:56:44;97149.97;;;-1.12;100.00
55032;BME280;40928;51.076;7.950;2023-04-26T04:59:12;97159.16;;;-1.08;100.00
55032;BME280;40928;51.076;7.950;2023-04-26T05:01:38;97158.84;;;-1.05;100.00
55032;BME280;40928;51.076;7.950;2023-04-26T05:04:07;97160.31;;;-1.02;100.00
55032;BME280;40928;51.076;7.950;2023-04-26T05:06:33;97159.69;;;-0.96;100.00
55032;BME280;40928;51.076;7.950;2023-04-26T05:08:59;97170.16;;;-0.88;100.00
55032;BME280;40928;51.076;7.950;2023-04-26T05:11:26;97162.47;;;-0.81;100.00
55032;BME280;40928;51.076;7.950;2023-04-26T05:13:51;97166.41;;;-0.77;100.00
55032;BME280;40928;51.076;7.950;2023-04-26T05:16:17;97165.25;;;-0.74;100.00
55032;BME280;40928;51.076;7.950;2023-04-26T05:18:43;97157.91;;;-0.71;100.00
55032;BME280;40928;51.076;7.950;2023-04-26T05:21:09;97165.25;;;-0.66;100.00
55032;BME280;40928;51.076;7.950;2023-04-26T05:23:35;97168.19;;;-0.61;100.00
55032;BME280;40928;51.076;7.950;2023-04-26T05:26:02;97175.75;;;-0.58;100.00
55032;BME280;40928;51.076;7.950;2023-04-26T05:28:49;97166.25;;;-0.51;100.00
55032;BME280;40928;51.076;7.950;2023-04-26T05:31:24;97171.78;;;-0.46;100.00
55032;BME280;40928;51.076;7.950;2023-04-26T05:34:16;97179.03;;;-0.39;100.00
55032;BME280;40928;51.076;7.950;2023-04-26T05:36:46;97176.56;;;-0.33;100.00
55032;BME280;40928;51.076;7.950;2023-04-26T05:39:12;97181.97;;;-0.26;100.00
55032;BME280;40928;51.076;7.950;2023-04-26T05:41:38;97182.75;;;-0.17;100.00
55032;BME280;40928;51.076;7.950;2023-04-26T05:44:03;97189.00;;;-0.10;100.00
55032;BME280;40928;51.076;7.950;2023-04-26T05:46:29;97190.13;;;-0.04;100.00
55032;BME280;40928;51.076;7.950;2023-04-26T05:48:54;97181.56;;;0.02;100.00
55032;BME280;40928;51.076;7.950;2023-04-26T05:51:26;97185.19;;;0.09;100.00
55032;BME280;40928;51.076;7.950;2023-04-26T05:53:52;97185.16;;;0.18;100.00
55032;BME280;40928;51.076;7.950;2023-04-26T05:56:21;97190.38;;;0.26;100.00
55032;BME280;40928;51.076;7.950;2023-04-26T05:58:48;97194.63;;;0.35;100.00
55032;BME280;40928;51.076;7.950;2023-04-26T06:01:14;97189.50;;;0.42;100.00
55032;BME280;40928;51.076;7.950;2023-04-26T06:03:40;97200.66;;;0.52;100.00
55032;BME280;40928;51.076;7.950;2023-04-26T06:06:05;97190.91;;;0.61;100.00
55032;BME280;40928;51.076;7.950;2023-04-26T06:08:32;97195.78;;;0.72;100.00
55032;BME280;40928;51.076;7.950;2023-04-26T06:10:58;97198.03;;;0.84;100.00
55032;BME280;40928;51.076;7.950;2023-04-26T06:13:25;97194.19;;;0.95;100.00
55032;BME280;40928;51.076;7.950;2023-04-26T06:15:52;97199.69;;;1.08;100.00
55032;BME280;40928;51.076;7.950;2023-04-26T06:18:18;97207.03;;;1.21;100.00
55032;BME280;40928;51.076;7.950;2023-04-26T06:20:45;97198.84;;;1.39;100.00
55032;BME280;40928;51.076;7.950;2023-04-26T06:23:11;97193.16;;;1.50;100.00
55032;BME280;40928;51.076;7.950;2023-04-26T06:25:37;97201.44;;;1.62;100.00
55032;BME280;40928;51.076;7.950;2023-04-26T06:28:08;97203.66;;;1.74;100.00
55032;BME280;40928;51.076;7.950;2023-04-26T06:30:34;97203.84;;;1.87;100.00
55032;BME280;40928;51.076;7.950;2023-04-26T06:32:59;97210.44;;;2.06;100.00
55032;BME280;40928;51.076;7.950;2023-04-26T06:35:25;97210.09;;;2.24;100.00
55032;BME280;40928;51.076;7.950;2023-04-26T06:37:51;97207.56;;;2.46;100.00
55032;BME280;40928;51.076;7.950;2023-04-26T06:40:17;97207.19;;;2.64;100.00
55032;BME280;40928;51.076;7.950;2023-04-26T06:42:43;97202.44;;;2.74;100.00
55032;BME280;40928;51.076;7.950;2023-04-26T06:45:26;97203.97;;;2.84;100.00
55032;BME280;40928;51.076;7.950;2023-04-26T06:47:53;97201.41;;;2.91;100.00
55032;BME280;40928;51.076;7.950;2023-04-26T06:50:22;97207.25;;;2.86;100.00
55032;BME280;40928;51.076;7.950;2023-04-26T06:52:47;97209.31;;;2.91;100.00
55032;BME280;40928;51.076;7.950;2023-04-26T06:55:13;97204.84;;;2.91;100.00
55032;BME280;40928;51.076;7.950;2023-04-26T06:57:39;97213.47;;;3.00;100.00
55032;BME280;40928;51.076;7.950;2023-04-26T07:00:05;97206.03;;;3.03;100.00
55032;BME280;40928;51.076;7.950;2023-04-26T07:02:30;97213.81;;;3.12;100.00
55032;BME280;40928;51.076;7.950;2023-04-26T07:04:56;97219.28;;;3.10;100.00
55032;BME280;40928;51.076;7.950;2023-04-26T07:07:22;97215.72;;;3.18;100.00
55032;BME280;40928;51.076;7.950;2023-04-26T07:09:47;97222.06;;;3.24;100.00
55032;BME280;40928;51.076;7.950;2023-04-26T07:12:13;97225.41;;;3.32;100.00
55032;BME280;40928;51.076;7.950;2023-04-26T07:14:38;97235.03;;;3.40;99.87
55032;BME280;40928;51.076;7.950;2023-04-26T07:17:10;97231.06;;;3.51;99.16
55032;BME280;40928;51.076;7.950;2023-04-26T07:19:36;97228.25;;;3.53;97.44
55032;BME280;40928;51.076;7.950;2023-04-26T07:22:02;97229.13;;;3.60;97.32
55032;BME280;40928;51.076;7.950;2023-04-26T07:24:28;97225.34;;;3.69;97.34
55032;BME280;40928;51.076;7.950;2023-04-26T07:26:55;97231.91;;;3.73;95.12
55032;BME280;40928;51.076;7.950;2023-04-26T07:29:21;97232.91;;;3.72;95.90
55032;BME280;40928;51.076;7.950;2023-04-26T07:31:47;97214.91;;;3.83;94.01
55032;BME280;40928;51.076;7.950;2023-04-26T07:34:13;97222.06;;;3.89;89.84
55032;BME280;40928;51.076;7.950;2023-04-26T07:36:38;97212.16;;;3.97;92.27
55032;BME280;40928;51.076;7.950;2023-04-26T07:39:04;97216.88;;;4.02;89.86
55032;BME280;40928;51.076;7.950;2023-04-26T07:41:30;97214.50;;;4.14;90.22
55032;BME280;40928;51.076;7.950;2023-04-26T07:43:56;97215.22;;;4.30;88.91
55032;BME280;40928;51.076;7.950;2023-04-26T07:46:22;97215.91;;;4.45;87.00
55032;BME280;40928;51.076;7.950;2023-04-26T07:48:47;97217.00;;;4.51;85.92
55032;BME280;40928;51.076;7.950;2023-04-26T07:51:13;97214.41;;;4.64;85.25
55032;BME280;40928;51.076;7.950;2023-04-26T07:53:39;97216.25;;;4.70;86.33
55032;BME280;40928;51.076;7.950;2023-04-26T07:56:06;97211.97;;;4.69;85.91
55032;BME280;40928;51.076;7.950;2023-04-26T07:58:38;97214.44;;;4.71;83.60
55032;BME280;40928;51.076;7.950;2023-04-26T08:01:04;97214.44;;;4.71;82.00
55032;BME280;40928;51.076;7.950;2023-04-26T08:03:30;97214.84;;;4.68;81.88
55032;BME280;40928;51.076;7.950;2023-04-26T08:05:55;97220.94;;;4.68;82.81
55032;BME280;40928;51.076;7.950;2023-04-26T08:08:26;97218.50;;;4.67;82.73
55032;BME280;40928;51.076;7.950;2023-04-26T08:10:51;97229.28;;;4.65;82.43
55032;BME280;40928;51.076;7.950;2023-04-26T08:13:17;97226.66;;;4.72;82.54
55032;BME280;40928;51.076;7.950;2023-04-26T08:15:43;97223.03;;;4.80;83.52
55032;BME280;40928;51.076;7.950;2023-04-26T08:18:08;97226.09;;;4.83;79.83
55032;BME280;40928;51.076;7.950;2023-04-26T08:20:34;97224.91;;;4.93;80.61
55032;BME280;40928;51.076;7.950;2023-04-26T08:22:59;97230.03;;;4.94;76.27
55032;BME280;40928;51.076;7.950;2023-04-26T08:25:25;97223.53;;;5.10;76.96
55032;BME280;40928;51.076;7.950;2023-04-26T08:27:51;97232.34;;;5.24;73.71
55032;BME280;40928;51.076;7.950;2023-04-26T08:30:17;97217.50;;;5.37;71.66
55032;BME280;40928;51.076;7.950;2023-04-26T08:32:43;97205.13;;;5.57;71.57
55032;BME280;40928;51.076;7.950;2023-04-26T08:35:10;97210.03;;;5.74;70.20
55032;BME280;40928;51.076;7.950;2023-04-26T08:37:36;97211.47;;;5.83;68.65
55032;BME280;40928;51.076;7.950;2023-04-26T08:40:06;97211.06;;;5.73;68.63
55032;BME280;40928;51.076;7.950;2023-04-26T08:42:41;97211.25;;;5.64;69.30
55032;BME280;40928;51.076;7.950;2023-04-26T08:45:10;97209.81;;;5.62;69.05
55032;BME280;40928;51.076;7.950;2023-04-26T08:47:42;97218.56;;;5.62;70.71
55032;BME280;40928;51.076;7.950;2023-04-26T08:50:10;97211.22;;;5.58;69.52
55032;BME280;40928;51.076;7.950;2023-04-26T08:52:37;97215.34;;;5.60;67.55
55032;BME280;40928;51.076;7.950;2023-04-26T08:55:06;97210.22;;;5.52;66.58
55032;BME280;40928;51.076;7.950;2023-04-26T08:57:34;97217.53;;;5.57;67.03
55032;BME280;40928;51.076;7.950;2023-04-26T09:00:02;97215.75;;;5.71;65.60
55032;BME280;40928;51.076;7.950;2023-04-26T09:02:30;97211.06;;;5.59;62.01
55032;BME280;40928;51.076;7.950;2023-04-26T09:04:56;97219.59;;;5.61;63.61
55032;BME280;40928;51.076;7.950;2023-04-26T09:07:31;97218.16;;;5.59;63.21
55032;BME280;40928;51.076;7.950;2023-04-26T09:09:58;97223.69;;;5.64;65.55
55032;BME280;40928;51.076;7.950;2023-04-26T09:12:24;97225.88;;;5.54;68.24
55032;BME280;40928;51.076;7.950;2023-04-26T09:14:50;97229.16;;;5.56;68.52
55032;BME280;40928;51.076;7.950;2023-04-26T09:17:29;97228.34;;;5.55;68.80
55032;BME280;40928;51.076;7.950;2023-04-26T09:19:56;97224.88;;;5.55;68.13
55032;BME280;40928;51.076;7.950;2023-04-26T09:22:34;97221.22;;;5.62;67.00
55032;BME280;40928;51.076;7.950;2023-04-26T09:25:04;97218.38;;;5.64;65.72
55032;BME280;40928;51.076;7.950;2023-04-26T09:27:40;97224.06;;;5.61;64.76
55032;BME280;40928;51.076;7.950;2023-04-26T09:32:49;97221.66;;;5.93;65.16
55032;BME280;40928;51.076;7.950;2023-04-26T09:35:30;97220.44;;;6.09;65.19
55032;BME280;40928;51.076;7.950;2023-04-26T09:40:25;97221.28;;;6.16;63.33
55032;BME280;40928;51.076;7.950;2023-04-26T09:43:12;97220.66;;;6.07;64.40
55032;BME280;40928;51.076;7.950;2023-04-26T09:48:29;97220.03;;;6.05;65.00
55032;BME280;40928;51.076;7.950;2023-04-26T09:53:32;97218.00;;;6.21;66.25
55032;BME280;40928;51.076;7.950;2023-04-26T09:56:14;97218.97;;;6.40;65.57
55032;BME280;40928;51.076;7.950;2023-04-26T10:01:27;97220.06;;;6.98;63.27
55032;BME280;40928;51.076;7.950;2023-04-26T10:03:55;97221.91;;;6.91;61.68
55032;BME280;40928;51.076;7.950;2023-04-26T10:06:22;97214.31;;;6.94;61.95
55032;BME280;40928;51.076;7.950;2023-04-26T10:08:47;97223.94;;;6.89;61.83
55032;BME280;40928;51.076;7.950;2023-04-26T10:11:13;97221.50;;;6.94;63.35
55032;BME280;40928;51.076;7.950;2023-04-26T10:13:40;97218.50;;;6.77;62.67
55032;BME280;40928;51.076;7.950;2023-04-26T10:16:06;97217.50;;;6.64;62.38
55032;BME280;40928;51.076;7.950;2023-04-26T10:18:32;97211.81;;;6.61;63.81
55032;BME280;40928;51.076;7.950;2023-04-26T10:21:01;97207.63;;;6.13;64.15
55032;BME280;40928;51.076;7.950;2023-04-26T10:23:29;97202.91;;;6.01;64.92
55032;BME280;40928;51.076;7.950;2023-04-26T10:25:55;97205.97;;;5.91;65.06
55032;BME280;40928;51.076;7.950;2023-04-26T10:31:10;97205.13;;;5.98;65.33
55032;BME280;40928;51.076;7.950;2023-04-26T10:33:36;97200.69;;;6.05;64.95
55032;BME280;40928;51.076;7.950;2023-04-26T10:36:12;97196.00;;;6.07;64.31
55032;BME280;40928;51.076;7.950;2023-04-26T10:42:25;97188.63;;;6.22;63.58
55032;BME280;40928;51.076;7.950;2023-04-26T10:45:24;97190.97;;;6.58;61.09
55032;BME280;40928;51.076;7.950;2023-04-26T10:48:14;97197.94;;;7.04;61.08
55032;BME280;40928;51.076;7.950;2023-04-26T10:56:08;97196.19;;;7.62;58.55
55032;BME280;40928;51.076;7.950;2023-04-26T10:58:34;97197.56;;;7.71;56.80
55032;BME280;40928;51.076;7.950;2023-04-26T11:01:14;97197.81;;;7.63;56.13
55032;BME280;40928;51.076;7.950;2023-04-26T11:04:06;97196.06;;;7.82;58.06
55032;BME280;40928;51.076;7.950;2023-04-26T11:06:54;97195.63;;;7.85;57.34
55032;BME280;40928;51.076;7.950;2023-04-26T11:09:48;97189.47;;;8.10;56.96
55032;BME280;40928;51.076;7.950;2023-04-26T11:12:15;97182.75;;;8.07;57.20
55032;BME280;40928;51.076;7.950;2023-04-26T11:14:44;97188.53;;;8.42;56.25
55032;BME280;40928;51.076;7.950;2023-04-26T11:17:11;97184.47;;;9.13;56.22
55032;BME280;40928;51.076;7.950;2023-04-26T11:19:37;97176.22;;;9.34;50.73
55032;BME280;40928;51.076;7.950;2023-04-26T11:22:07;97178.53;;;9.42;48.64
55032;BME280;40928;51.076;7.950;2023-04-26T11:24:33;97180.22;;;9.55;46.25
55032;BME280;40928;51.076;7.950;2023-04-26T11:27:10;97170.44;;;10.27;46.98
55032;BME280;40928;51.076;7.950;2023-04-26T11:29:36;97172.69;;;10.82;43.52
55032;BME280;40928;51.076;7.950;2023-04-26T11:32:02;97176.75;;;11.43;43.20
55032;BME280;40928;51.076;7.950;2023-04-26T11:34:35;97182.31;;;11.24;40.83
55032;BME280;40928;51.076;7.950;2023-04-26T11:37:02;97176.22;;;11.75;39.46
55032;BME280;40928;51.076;7.950;2023-04-26T11:39:34;97166.53;;;12.42;38.71
55032;BME280;40928;51.076;7.950;2023-04-26T11:42:07;97175.59;;;13.03;38.74
55032;BME280;40928;51.076;7.950;2023-04-26T11:44:33;97174.44;;;13.43;35.77
55032;BME280;40928;51.076;7.950;2023-04-26T11:47:03;97179.13;;;13.85;34.93
55032;BME280;40928;51.076;7.950;2023-04-26T11:49:35;97170.41;;;14.06;33.48
55032;BME280;40928;51.076;7.950;2023-04-26T11:52:01;97166.06;;;13.99;35.65
55032;BME280;40928;51.076;7.950;2023-04-26T11:54:31;97174.63;;;13.14;35.81
55032;BME280;40928;51.076;7.950;2023-04-26T11:56:58;97175.44;;;12.48;38.27
55032;BME280;40928;51.076;7.950;2023-04-26T11:59:28;97174.84;;;11.90;38.19
55032;BME280;40928;51.076;7.950;2023-04-26T12:01:57;97167.19;;;11.47;39.41
55032;BME280;40928;51.076;7.950;2023-04-26T12:04:29;97168.22;;;11.29;40.75
55032;BME280;40928;51.076;7.950;2023-04-26T12:06:55;97180.00;;;10.75;42.54
55032;BME280;40928;51.076;7.950;2023-04-26T12:09:22;97177.59;;;10.62;43.17
55032;BME280;40928;51.076;7.950;2023-04-26T12:12:01;97177.63;;;10.50;42.77
55032;BME280;40928;51.076;7.950;2023-04-26T12:14:34;97180.50;;;10.01;44.72
55032;BME280;40928;51.076;7.950;2023-04-26T12:17:01;97181.78;;;9.98;44.06
55032;BME280;40928;51.076;7.950;2023-04-26T12:19:37;97178.31;;;10.10;43.78
55032;BME280;40928;51.076;7.950;2023-04-26T12:22:04;97174.34;;;9.88;44.16
55032;BME280;40928;51.076;7.950;2023-04-26T12:24:31;97172.47;;;9.89;42.86
55032;BME280;40928;51.076;7.950;2023-04-26T12:27:04;97172.44;;;9.65;43.32
55032;BME280;40928;51.076;7.950;2023-04-26T12:29:31;97172.22;;;9.67;44.53
55032;BME280;40928;51.076;7.950;2023-04-26T12:31:57;97177.50;;;9.43;42.97
55032;BME280;40928;51.076;7.950;2023-04-26T12:34:24;97161.66;;;9.48;43.20
55032;BME280;40928;51.076;7.950;2023-04-26T12:36:49;97173.56;;;9.34;43.60
55032;BME280;40928;51.076;7.950;2023-04-26T12:39:15;97181.06;;;9.25;43.55
55032;BME280;40928;51.076;7.950;2023-04-26T12:41:42;97175.00;;;9.72;43.29
55032;BME280;40928;51.076;7.950;2023-04-26T12:44:08;97178.19;;;10.28;44.82
55032;BME280;40928;51.076;7.950;2023-04-26T12:46:34;97176.53;;;10.75;44.58
55032;BME280;40928;51.076;7.950;2023-04-26T12:49:00;97172.94;;;11.10;44.19
55032;BME280;40928;51.076;7.950;2023-04-26T12:51:26;97175.06;;;11.25;43.30
55032;BME280;40928;51.076;7.950;2023-04-26T12:53:51;97178.28;;;11.10;41.29
55032;BME280;40928;51.076;7.950;2023-04-26T12:56:17;97178.44;;;11.03;41.43
55032;BME280;40928;51.076;7.950;2023-04-26T12:58:43;97171.03;;;11.22;42.44
55032;BME280;40928;51.076;7.950;2023-04-26T13:01:09;97178.31;;;11.27;41.83
55032;BME280;40928;51.076;7.950;2023-04-26T13:03:35;97170.31;;;11.27;41.74
55032;BME280;40928;51.076;7.950;2023-04-26T13:06:00;97165.34;;;11.48;41.85
55032;BME280;40928;51.076;7.950;2023-04-26T13:08:27;97169.97;;;11.69;41.89
55032;BME280;40928;51.076;7.950;2023-04-26T13:10:53;97166.38;;;11.47;38.27
55032;BME280;40928;51.076;7.950;2023-04-26T13:13:18;97170.84;;;10.71;38.80
55032;BME280;40928;51.076;7.950;2023-04-26T13:15:44;97158.56;;;10.58;41.03
55032;BME280;40928;51.076;7.950;2023-04-26T13:18:09;97158.75;;;10.69;41.20
55032;BME280;40928;51.076;7.950;2023-04-26T13:20:35;97166.94;;;10.91;41.18
55032;BME280;40928;51.076;7.950;2023-04-26T13:23:02;97163.28;;;10.80;40.85
55032;BME280;40928;51.076;7.950;2023-04-26T13:25:28;97160.19;;;10.59;41.06
55032;BME280;40928;51.076;7.950;2023-04-26T13:27:54;97165.28;;;10.13;41.98